Time;durP1;ratioP1;P1;durP2;ratioP2;P2;SDS_P1;SDS_P2;PMS_P1;PMS_P2;Temp;Humidity;BMP_temperature;BMP_pressure;BME280_temperature;BME280_humidity;BME280_pressure;Samples;Min_cycle;Max_cycle;Signal;HPM_P1;HPM_P2
2024/03/12 00:01:10;;;;;;;15.48;8.18;;;256.90;2252.80;;;;;;5031719;28;20085;-77
2024/03/12 00:03:42;;;;;;;10.82;6.75;;;256.90;2252.80;;;;;;5046759;28;20033;-76
2024/03/12 00:06:09;;;;;;;13.82;7.18;;;256.80;2252.80;;;;;;5046343;28;20374;-79
2024/03/12 00:08:36;;;;;;;12.13;7.32;;;256.70;2252.80;;;;;;5062521;28;20029;-76
2024/03/12 00:11:04;;;;;;;11.90;7.70;;;256.60;2252.80;;;;;;5029462;28;20488;-77
2024/03/12 00:13:30;;;;;;;10.07;7.30;;;256.60;2252.80;;;;;;5049908;28;20043;-75
2024/03/12 00:15:56;;;;;;;10.70;6.85;;;256.50;2252.80;;;;;;5038431;28;20028;-80
2024/03/12 00:18:25;;;;;;;13.00;7.88;;;256.50;2252.80;;;;;;5058945;28;20033;-78
2024/03/12 00:20:54;;;;;;;9.57;6.45;;;256.50;2252.80;;;;;;5042933;28;20051;-75
2024/03/12 00:23:22;;;;;;;13.40;7.30;;;256.50;2252.80;;;;;;5051236;28;20032;-77
2024/03/12 00:25:48;;;;;;;12.55;7.72;;;256.50;2252.80;;;;;;5059907;28;20108;-77
2024/03/12 00:28:14;;;;;;;14.40;7.10;;;256.50;2252.80;;;;;;5049281;28;20157;-76
2024/03/12 00:30:44;;;;;;;11.88;6.65;;;256.50;2252.80;;;;;;5064369;28;20036;-77
2024/03/12 00:33:10;;;;;;;27.83;7.28;;;256.50;2252.80;;;;;;5071057;28;20078;-75
2024/03/12 00:35:36;;;;;;;12.98;7.38;;;256.50;2252.80;;;;;;5065430;28;20028;-79
2024/03/12 00:38:03;;;;;;;12.82;7.85;;;256.50;2252.80;;;;;;5050169;28;20033;-76
2024/03/12 00:40:36;;;;;;;11.77;6.93;;;256.50;2252.80;;;;;;5069878;28;20432;-75
2024/03/12 00:43:03;;;;;;;15.43;7.80;;;256.50;2252.80;;;;;;5044334;28;20075;-75
2024/03/12 00:45:38;;;;;;;12.57;6.82;;;256.60;2252.80;;;;;;5044341;28;20025;-76
2024/03/12 00:48:12;;;;;;;11.43;6.40;;;256.50;2252.80;;;;;;5064653;28;20025;-77
2024/03/12 00:50:39;;;;;;;11.70;6.25;;;256.50;2252.80;;;;;;5068016;28;20021;-76
2024/03/12 00:53:07;;;;;;;10.88;7.03;;;256.50;2252.80;;;;;;5067982;28;20036;-75
2024/03/12 00:55:35;;;;;;;10.88;6.18;;;256.50;2252.80;;;;;;5056284;28;20029;-77
2024/03/12 00:58:01;;;;;;;11.85;6.35;;;256.50;2252.80;;;;;;5047850;28;20032;-76
2024/03/12 01:00:33;;;;;;;8.93;5.85;;;256.50;2252.80;;;;;;5062398;28;20028;-82
2024/03/12 01:03:00;;;;;;;10.98;6.85;;;256.40;2252.80;;;;;;5057569;28;20017;-75
2024/03/12 01:05:30;;;;;;;10.95;6.55;;;256.30;2252.80;;;;;;5062844;28;20036;-77
2024/03/12 01:08:01;;;;;;;9.93;5.70;;;256.30;2252.80;;;;;;5051707;28;20549;-75
2024/03/12 01:10:28;;;;;;;10.52;6.30;;;256.20;2252.80;;;;;;5044859;28;20376;-78
2024/03/12 01:12:57;;;;;;;12.02;7.07;;;256.10;2252.80;;;;;;5061952;28;20020;-77
2024/03/12 01:15:23;;;;;;;10.30;6.43;;;256.10;2252.80;;;;;;5066563;28;20029;-77
2024/03/12 01:17:50;;;;;;;11.73;6.18;;;256.00;2252.80;;;;;;5068175;28;20044;-77
2024/03/12 01:20:18;;;;;;;11.45;6.63;;;231.30;2252.80;;;;;;5065075;28;20501;-76
2024/03/12 01:22:44;;;;;;;13.35;7.85;;;231.30;2252.80;;;;;;5046536;28;20033;-77
2024/03/12 01:25:10;;;;;;;9.63;6.07;;;231.30;2252.80;;;;;;5037523;28;20036;-75
2024/03/12 01:27:42;;;;;;;12.15;6.82;;;231.20;2252.80;;;;;;5063149;28;20024;-76
2024/03/12 01:30:14;;;;;;;11.73;6.85;;;231.20;2252.80;;;;;;5067549;28;20029;-76
2024/03/12 01:32:47;;;;;;;11.27;7.05;;;231.20;2252.80;;;;;;5054677;28;20021;-81
2024/03/12 01:35:13;;;;;;;13.32;7.68;;;231.20;2252.80;;;;;;5064034;28;20480;-76
2024/03/12 01:37:45;;;;;;;25.10;10.90;;;256.00;2252.80;;;;;;5048904;28;20060;-80
2024/03/12 01:40:29;;;;;;;26.17;10.82;;;256.10;2252.80;;;;;;5053626;28;20109;-77
2024/03/12 01:43:06;;;;;;;29.60;11.05;;;256.20;2252.80;;;;;;5069711;28;20021;-76
2024/03/12 01:45:33;;;;;;;;;;;256.20;2252.80;;;;;;5051659;28;20101;-77
2024/03/12 01:48:03;;;;;;;;;;;256.20;2252.80;;;;;;5058951;28;19908;-76
2024/03/12 01:50:31;;;;;;;19.75;8.85;;;256.30;2252.80;;;;;;5037348;28;19909;-77
2024/03/12 01:52:59;;;;;;;12.85;7.50;;;256.30;2252.80;;;;;;5044745;28;20117;-76
2024/03/12 01:55:26;;;;;;;15.35;8.40;;;256.20;2252.80;;;;;;5071633;28;20048;-76
2024/03/12 01:57:52;;;;;;;11.02;6.78;;;256.20;2252.80;;;;;;5071147;28;20033;-76
2024/03/12 02:00:19;;;;;;;12.07;6.82;;;256.20;2252.80;;;;;;5070270;28;20482;-75
2024/03/12 02:02:51;;;;;;;14.13;7.82;;;256.10;2252.80;;;;;;5067510;28;20036;-76
2024/03/12 02:05:17;;;;;;;21.67;10.02;;;256.10;2252.80;;;;;;5061458;28;20021;-75
2024/03/12 02:07:48;;;;;;;21.80;11.25;;;256.10;2252.80;;;;;;5051189;28;20455;-79
2024/03/12 02:10:15;;;;;;;18.13;9.00;;;256.00;2252.80;;;;;;5059935;28;20059;-75
2024/03/12 02:12:45;;;;;;;11.05;6.72;;;231.30;2252.80;;;;;;5038326;28;20025;-77
2024/03/12 02:15:12;;;;;;;12.13;7.38;;;231.20;2252.80;;;;;;5038152;28;20021;-74
2024/03/12 02:17:41;;;;;;;12.55;7.18;;;256.00;2252.80;;;;;;5037933;28;20029;-76
2024/03/12 02:20:11;;;;;;;12.75;7.05;;;231.10;2252.80;;;;;;5056452;28;20075;-77
2024/03/12 02:22:37;;;;;;;13.10;7.22;;;231.00;2252.80;;;;;;5055831;28;20045;-76
2024/03/12 02:25:09;;;;;;;12.13;7.30;;;231.00;2252.80;;;;;;5055908;28;20021;-76
2024/03/12 02:27:36;;;;;;;18.15;8.85;;;230.90;2252.80;;;;;;5054470;28;20027;-81
2024/03/12 02:30:02;;;;;;;10.63;6.75;;;230.80;2252.80;;;;;;5056040;28;20049;-79
2024/03/12 02:32:28;;;;;;;11.60;6.80;;;230.80;2252.80;;;;;;5053981;28;20027;-76
2024/03/12 02:34:53;;;;;;;13.43;7.20;;;230.70;2252.80;;;;;;5054684;28;20022;-76
2024/03/12 02:37:22;;;;;;;11.70;6.68;;;230.70;2252.80;;;;;;5055314;28;20534;-80
2024/03/12 02:39:48;;;;;;;12.75;7.05;;;230.70;2252.80;;;;;;5055791;28;20017;-81
2024/03/12 02:42:15;;;;;;;12.45;7.45;;;230.70;2252.80;;;;;;5054149;28;20027;-75
2024/03/12 02:44:41;;;;;;;12.63;7.18;;;230.70;2252.80;;;;;;5044977;28;20074;-75
2024/03/12 02:47:07;;;;;;;16.17;7.68;;;230.70;2252.80;;;;;;5055068;28;20475;-75
2024/03/12 02:49:35;;;;;;;13.48;8.02;;;230.70;2252.80;;;;;;5055153;28;20040;-80
2024/03/12 02:52:01;;;;;;;13.02;8.10;;;230.70;2252.80;;;;;;5054397;28;20033;-81
2024/03/12 02:54:27;;;;;;;13.07;7.80;;;230.70;2252.80;;;;;;5042555;28;20024;-76
2024/03/12 02:56:56;;;;;;;13.20;8.23;;;230.70;2252.80;;;;;;5055002;28;20025;-76
2024/03/12 02:59:24;;;;;;;11.35;7.28;;;230.70;2252.80;;;;;;5054047;28;20037;-77
2024/03/12 03:01:49;;;;;;;14.60;7.47;;;230.70;2252.80;;;;;;5028418;28;20017;-79
2024/03/12 03:04:15;;;;;;;13.98;7.65;;;230.70;2252.80;;;;;;5053709;28;20032;-81
2024/03/12 03:06:41;;;;;;;14.10;7.85;;;230.70;2252.80;;;;;;5054054;28;20041;-76
2024/03/12 03:09:09;;;;;;;14.18;7.85;;;230.80;2252.80;;;;;;5055047;28;20029;-76
2024/03/12 03:11:35;;;;;;;13.75;7.78;;;230.80;2252.80;;;;;;5055334;28;20169;-76
2024/03/12 03:14:02;;;;;;;13.85;7.93;;;230.80;2252.80;;;;;;5053515;28;20025;-77
2024/03/12 03:16:28;;;;;;;13.57;8.43;;;230.80;2252.80;;;;;;5053841;28;20033;-79
2024/03/12 03:18:55;;;;;;;14.30;8.05;;;230.80;2252.80;;;;;;5053762;28;20021;-76
2024/03/12 03:21:20;;;;;;;13.93;8.27;;;230.70;2252.80;;;;;;5054780;28;20035;-75
2024/03/12 03:23:46;;;;;;;15.00;7.95;;;230.70;2252.80;;;;;;5054796;28;20021;-80
2024/03/12 03:26:12;;;;;;;;;;;230.70;2252.80;;;;;;5054087;28;20379;-76
2024/03/12 03:28:38;;;;;;;15.27;8.20;;;230.80;2252.80;;;;;;5054628;28;19905;-76
2024/03/12 03:31:04;;;;;;;13.48;7.75;;;230.70;2252.80;;;;;;5053426;28;20029;-77
2024/03/12 03:33:31;;;;;;;14.52;8.52;;;230.70;2252.80;;;;;;5053301;28;20405;-75
2024/03/12 03:35:57;;;;;;;18.60;9.40;;;230.70;2252.80;;;;;;5053065;28;20037;-76
2024/03/12 03:38:27;;;;;;;15.70;9.85;;;230.70;2252.80;;;;;;5054718;28;20029;-77
2024/03/12 03:40:52;;;;;;;14.68;8.27;;;230.70;2252.80;;;;;;5053218;28;20017;-77
2024/03/12 03:43:18;;;;;;;12.35;7.57;;;230.70;2252.80;;;;;;5054595;28;20035;-76
2024/03/12 03:45:44;;;;;;;;;;;230.60;2252.80;;;;;;5054884;28;20017;-78
2024/03/12 03:48:10;;;;;;;13.95;8.00;;;230.70;2252.80;;;;;;5054455;28;19963;-80
2024/03/12 03:50:36;;;;;;;13.32;7.78;;;230.70;2252.80;;;;;;5054464;28;20020;-76
2024/03/12 03:53:02;;;;;;;;;;;230.80;2252.80;;;;;;5054546;28;20021;-76
2024/03/12 03:55:28;;;;;;;13.00;7.57;;;230.80;2252.80;;;;;;5036664;28;19912;-81
2024/03/12 03:57:54;;;;;;;16.50;7.95;;;230.90;2252.80;;;;;;5054368;28;20033;-76
2024/03/12 04:00:23;;;;;;;12.95;7.55;;;230.90;2252.80;;;;;;5054154;28;20078;-77
2024/03/12 04:02:50;;;;;;;12.70;8.02;;;230.90;2252.80;;;;;;5053382;28;20043;-77
2024/03/12 04:05:16;;;;;;;19.15;7.43;;;230.80;2252.80;;;;;;5052874;28;20025;-78
2024/03/12 04:07:43;;;;;;;16.80;8.25;;;230.80;2252.80;;;;;;5053693;28;20053;-76
2024/03/12 04:10:10;;;;;;;19.52;10.70;;;230.90;2252.80;;;;;;5054120;28;20110;-77
2024/03/12 04:12:46;;;;;;;19.42;9.18;;;231.00;2252.80;;;;;;5054056;28;20087;-81
2024/03/12 04:15:12;;;;;;;17.38;9.18;;;230.90;2252.80;;;;;;5054007;28;20027;-76
2024/03/12 04:17:39;;;;;;;17.55;9.38;;;230.90;2252.80;;;;;;5052866;28;20037;-81
2024/03/12 04:20:11;;;;;;;17.02;9.10;;;230.90;2252.80;;;;;;5052737;28;20548;-76
2024/03/12 04:22:38;;;;;;;13.45;8.10;;;230.90;2252.80;;;;;;5039278;28;20059;-76
2024/03/12 04:25:07;;;;;;;13.02;7.28;;;230.90;2252.80;;;;;;5053738;28;20051;-79
2024/03/12 04:27:37;;;;;;;14.50;9.10;;;230.90;2252.80;;;;;;5052483;28;20025;-77
2024/03/12 04:30:11;;;;;;;14.40;8.48;;;230.80;2252.80;;;;;;5053826;28;20017;-78
2024/03/12 04:32:38;;;;;;;17.95;9.20;;;230.80;2252.80;;;;;;5039589;28;20033;-80
2024/03/12 04:35:04;;;;;;;21.60;11.43;;;230.80;2252.80;;;;;;5046384;28;20020;-76
2024/03/12 04:37:34;;;;;;;26.90;11.52;;;230.90;2252.80;;;;;;5052206;28;20080;-81
2024/03/12 04:40:06;;;;;;;19.83;10.13;;;230.90;2252.80;;;;;;5053274;28;20021;-76
2024/03/12 04:42:35;;;;;;;16.65;9.20;;;230.90;2252.80;;;;;;5047031;28;20021;-76
2024/03/12 04:45:01;;;;;;;21.85;11.35;;;230.90;2252.80;;;;;;5048299;28;20029;-76
2024/03/12 04:47:27;;;;;;;17.63;9.77;;;230.90;2252.80;;;;;;5052586;28;20531;-82
2024/03/12 04:49:53;;;;;;;15.55;9.23;;;231.00;2252.80;;;;;;5052092;28;20113;-81
2024/03/12 04:52:19;;;;;;;14.85;8.23;;;230.90;2252.80;;;;;;5026293;28;20033;-76
2024/03/12 04:54:46;;;;;;;12.98;8.15;;;230.90;2252.80;;;;;;5044336;28;20029;-82
2024/03/12 04:57:11;;;;;;;15.82;8.75;;;230.90;2252.80;;;;;;5051780;28;20029;-76
2024/03/12 04:59:37;;;;;;;15.02;8.85;;;230.90;2252.80;;;;;;5051727;28;20394;-81
2024/03/12 05:02:03;;;;;;;11.95;7.70;;;230.80;2252.80;;;;;;5052096;28;20029;-75
2024/03/12 05:04:29;;;;;;;17.90;9.25;;;230.70;2252.80;;;;;;5053286;28;20075;-76
2024/03/12 05:06:55;;;;;;;18.17;10.30;;;230.60;2252.80;;;;;;5051302;28;20044;-81
2024/03/12 05:09:23;;;;;;;;;;;230.60;2252.80;;;;;;5053449;28;20055;-80
2024/03/12 05:11:49;;;;;;;16.50;8.27;;;230.70;2252.80;;;;;;5053458;28;19912;-80
2024/03/12 05:14:15;;;;;;;15.55;8.40;;;230.70;2252.80;;;;;;5042865;28;20053;-77
2024/03/12 05:16:41;;;;;;;14.65;8.52;;;230.70;2252.80;;;;;;5056150;28;20036;-77
2024/03/12 05:19:10;;;;;;;19.02;10.98;;;230.80;2252.80;;;;;;5030114;28;20021;-76
2024/03/12 05:21:37;;;;;;;16.27;9.38;;;230.80;2252.80;;;;;;5057405;28;20100;-76
2024/03/12 05:24:03;;;;;;;17.50;10.68;;;230.60;2252.80;;;;;;5055648;28;20033;-77
2024/03/12 05:26:31;;;;;;;16.40;9.52;;;230.70;2252.80;;;;;;5049376;28;20032;-78
2024/03/12 05:28:58;;;;;;;18.60;10.30;;;230.70;2252.80;;;;;;5052456;28;20028;-76
2024/03/12 05:31:32;;;;;;;18.23;10.68;;;230.70;2252.80;;;;;;5055846;28;20025;-76
2024/03/12 05:34:02;;;;;;;19.83;10.55;;;230.70;2252.80;;;;;;5054970;28;20021;-76
2024/03/12 05:36:40;;;;;;;18.50;11.57;;;230.90;2252.80;;;;;;5056832;28;20033;-75
2024/03/12 05:39:19;;;;;;;28.98;14.23;;;230.90;2252.80;;;;;;5055530;28;20039;-76
2024/03/12 05:49:58;;;;;;;17.67;10.32;;;231.00;2252.80;;;;;;5056847;28;20107;-76
2024/03/12 05:52:24;;;;;;;21.17;11.23;;;231.00;2252.80;;;;;;5056738;28;20435;-76
2024/03/12 05:54:51;;;;;;;17.52;11.00;;;231.10;2252.80;;;;;;5056507;28;20041;-79
2024/03/12 05:57:18;;;;;;;20.27;10.65;;;231.10;2252.80;;;;;;5056731;28;20043;-74
2024/03/12 05:59:44;;;;;;;13.00;8.63;;;231.30;2252.80;;;;;;5055100;28;20021;-74
2024/03/12 06:02:09;;;;;;;15.30;8.85;;;231.30;2252.80;;;;;;5057692;28;20090;-79
2024/03/12 06:04:35;;;;;;;;;;;256.00;2252.80;;;;;;5047644;28;20147;-79
2024/03/12 06:07:01;;;;;;;17.33;9.93;;;256.10;2252.80;;;;;;5056723;28;20495;-76
2024/03/12 06:09:28;;;;;;;16.92;8.98;;;256.30;2252.80;;;;;;5050697;28;20036;-77
2024/03/12 06:11:54;;;;;;;19.95;10.13;;;256.30;2252.80;;;;;;5043969;28;20500;-79
2024/03/12 06:14:25;;;;;;;19.30;10.20;;;256.40;2252.80;;;;;;5069985;28;20036;-78
2024/03/12 06:16:51;;;;;;;21.73;10.45;;;256.50;2252.80;;;;;;5055448;28;20040;-79
2024/03/12 06:19:18;;;;;;;19.10;10.07;;;256.50;2252.80;;;;;;5047201;28;20032;-79
2024/03/12 06:21:43;;;;;;;16.08;9.07;;;281.80;2278.40;;;;;;5052790;28;20490;-80
2024/03/12 06:24:09;;;;;;;19.30;9.63;;;256.70;2252.80;;;;;;5039907;28;20057;-81
2024/03/12 06:26:36;;;;;;;15.27;9.13;;;256.90;2252.80;;;;;;5039581;28;20115;-81
2024/03/12 06:29:02;;;;;;;18.00;9.05;;;281.60;2278.40;;;;;;5049533;28;20504;-80
2024/03/12 06:31:29;;;;;;;14.23;9.60;;;281.70;2278.40;;;;;;5063285;28;20036;-77
2024/03/12 06:33:55;;;;;;;16.45;8.48;;;281.90;2278.40;;;;;;5050727;28;20028;-78
2024/03/12 06:36:20;;;;;;;13.13;8.63;;;282.00;2278.40;;;;;;5069985;28;20033;-75
2024/03/12 06:38:48;;;;;;;14.75;8.82;;;282.30;2278.40;;;;;;5069114;28;20440;-76
2024/03/12 06:41:14;;;;;;;17.33;10.07;;;282.50;2278.40;;;;;;5070997;28;20116;-77
2024/03/12 06:43:40;;;;;;;17.30;9.43;;;307.30;2304.00;;;;;;5071250;28;20021;-75
2024/03/12 06:46:15;;;;;;;17.30;9.13;;;307.40;2304.00;;;;;;5067958;28;20028;-76
2024/03/12 06:48:41;;;;;;;14.50;8.57;;;307.70;2304.00;;;;;;5065894;28;20020;-75
2024/03/12 06:51:07;;;;;;;14.65;8.50;;;307.90;2304.00;;;;;;5039843;28;20025;-76
2024/03/12 06:53:36;;;;;;;14.55;8.35;;;332.80;2329.60;;;;;;5060770;28;20144;-77
2024/03/12 06:56:05;;;;;;;12.35;7.75;;;333.10;2329.60;;;;;;5048301;28;20028;-76
2024/03/12 06:58:31;;;;;;;11.65;7.35;;;333.20;2329.60;;;;;;5069101;28;20033;-75
2024/03/12 07:00:57;;;;;;;10.30;6.95;;;333.40;2329.60;;;;;;5059755;28;20033;-75
2024/03/12 07:03:24;;;;;;;12.88;7.55;;;333.60;2329.60;;;;;;5066465;28;20020;-80
2024/03/12 07:05:52;;;;;;;11.20;5.97;;;358.40;2329.60;;;;;;5041551;28;20485;-82
2024/03/12 07:08:21;;;;;;;15.27;7.10;;;358.50;2329.60;;;;;;5045904;28;20101;-77
2024/03/12 07:10:48;;;;;;;8.73;5.38;;;358.90;2329.60;;;;;;5070009;28;20073;-75
2024/03/12 07:13:14;;;;;;;8.82;5.40;;;359.00;2329.60;;;;;;5064420;28;20020;-76
2024/03/12 07:15:42;;;;;;;6.65;4.03;;;359.30;2329.60;;;;;;5050326;28;20021;-81
2024/03/12 07:18:08;;;;;;;6.63;2.78;;;384.20;2329.60;;;;;;5071522;28;20040;-82
2024/03/12 07:20:36;;;;;;;6.53;3.60;;;384.40;2329.60;;;;;;5067775;28;20032;-77
2024/03/12 07:23:05;;;;;;;10.75;3.83;;;384.80;2329.60;;;;;;5066135;28;20481;-77
2024/03/12 07:25:31;;;;;;;5.20;2.58;;;384.90;2329.60;;;;;;5051849;28;20024;-76
2024/03/12 07:28:07;;;;;;;5.82;3.05;;;409.60;2355.20;;;;;;5051216;28;20021;-76
2024/03/12 07:30:33;;;;;;;7.22;3.35;;;409.60;2355.20;;;;;;5054816;28;20107;-77
2024/03/12 07:32:59;;;;;;;7.93;4.10;;;409.80;2355.20;;;;;;5046709;28;20478;-76
2024/03/12 07:35:25;;;;;;;7.05;2.88;;;410.00;2355.20;;;;;;5035092;28;20033;-77
2024/03/12 07:37:51;;;;;;;6.45;3.58;;;410.20;2355.20;;;;;;5069284;28;20494;-75
2024/03/12 07:40:17;;;;;;;5.03;2.90;;;410.30;2355.20;;;;;;5065674;28;20059;-75
2024/03/12 07:42:43;;;;;;;5.28;2.70;;;410.20;2304.00;;;;;;5071284;28;20040;-76
2024/03/12 07:45:11;;;;;;;8.27;4.47;;;435.20;2304.00;;;;;;5051796;28;20090;-78
2024/03/12 07:47:40;;;;;;;21.02;9.45;;;410.50;2278.40;;;;;;5031423;28;20056;-78
2024/03/12 07:50:08;;;;;;;5.40;2.95;;;435.40;2227.20;;;;;;5048059;28;20043;-78
2024/03/12 07:52:34;;;;;;;7.32;4.28;;;435.50;2150.40;;;;;;5048149;28;20497;-79
2024/03/12 07:55:04;;;;;;;8.35;4.47;;;435.60;2201.60;;;;;;5074106;28;20028;-78
2024/03/12 07:57:33;;;;;;;25.77;13.93;;;435.80;2176.00;;;;;;5052573;28;20051;-77
2024/03/12 07:59:59;;;;;;;8.07;3.95;;;435.80;2124.80;;;;;;5048725;28;20024;-80
2024/03/12 08:02:25;;;;;;;10.30;5.78;;;435.90;2124.80;;;;;;5050642;28;20075;-79
2024/03/12 08:04:51;;;;;;;4.65;2.35;;;436.00;2124.80;;;;;;5065337;28;20016;-78
2024/03/12 08:07:21;;;;;;;3.72;2.22;;;435.70;2073.60;;;;;;5050089;28;20559;-81
2024/03/12 08:09:48;;;;;;;6.15;2.90;;;435.70;2073.60;;;;;;5032750;28;20033;-77
2024/03/12 08:12:15;;;;;;;7.07;4.00;;;435.80;2124.80;;;;;;5068430;28;20082;-78
2024/03/12 08:14:41;;;;;;;15.55;7.85;;;435.60;2124.80;;;;;;5059886;28;20020;-78
2024/03/12 08:17:13;;;;;;;3.88;2.55;;;435.80;2150.40;;;;;;5060042;28;20036;-78
2024/03/12 08:19:40;;;;;;;5.03;3.35;;;436.10;2048.00;;;;;;5065229;28;20386;-78
2024/03/12 08:22:08;;;;;;;3.65;1.85;;;436.10;2048.00;;;;;;5044203;28;20029;-79
2024/03/12 08:24:37;;;;;;;4.57;1.95;;;436.10;2022.40;;;;;;5036105;28;20491;-78
2024/03/12 08:27:05;;;;;;;3.28;1.80;;;460.90;2022.40;;;;;;5057326;28;20080;-78
2024/03/12 08:29:31;;;;;;;4.55;2.17;;;436.10;1971.20;;;;;;5046764;28;20453;-76
2024/03/12 08:31:57;;;;;;;2.63;1.92;;;460.80;2022.40;;;;;;5049940;28;20048;-78
2024/03/12 08:34:23;;;;;;;5.65;4.05;;;460.80;2022.40;;;;;;5042678;28;20033;-76
2024/03/12 08:36:49;;;;;;;4.55;2.55;;;460.80;2022.40;;;;;;5063453;28;20064;-79
2024/03/12 08:39:15;;;;;;;4.35;2.40;;;460.90;2022.40;;;;;;5054872;28;20393;-83
2024/03/12 08:41:42;;;;;;;2.60;1.50;;;460.90;1945.60;;;;;;5042864;28;20033;-79
2024/03/12 08:44:09;;;;;;;2.22;1.10;;;460.90;1971.20;;;;;;5032735;28;20031;-78
2024/03/12 08:46:35;;;;;;;3.83;2.58;;;460.90;1920.00;;;;;;5065957;28;20016;-78
2024/03/12 08:49:01;;;;;;;3.15;1.48;;;461.20;1894.40;;;;;;5048196;28;20501;-79
2024/03/12 08:51:33;;;;;;;1.23;1.00;;;461.40;1817.60;;;;;;5041062;28;20024;-76
2024/03/12 08:54:01;;;;;;;2.67;1.55;;;461.40;1817.60;;;;;;5053967;28;20052;-77
2024/03/12 08:56:29;;;;;;;1.70;1.10;;;461.70;1817.60;;;;;;5054460;28;20017;-78
2024/03/12 08:58:57;;;;;;;5.53;2.30;;;486.40;1766.40;;;;;;5045401;28;20041;-76
2024/03/12 09:01:24;;;;;;;3.47;2.00;;;461.70;1843.20;;;;;;5062588;28;20028;-75
2024/03/12 09:03:49;;;;;;;5.15;1.70;;;461.70;1843.20;;;;;;5062324;28;20036;-75
2024/03/12 09:06:16;;;;;;;2.60;1.55;;;486.40;1817.60;;;;;;5070094;28;20029;-78
2024/03/12 09:08:43;;;;;;;3.28;1.73;;;461.70;1792.00;;;;;;5044679;28;20102;-77
2024/03/12 09:11:15;;;;;;;8.38;3.22;;;461.50;1843.20;;;;;;5069390;28;20047;-75
2024/03/12 09:13:41;;;;;;;4.00;2.25;;;461.70;1843.20;;;;;;5066316;28;20047;-74
2024/03/12 09:16:12;;;;;;;4.38;2.28;;;486.40;1766.40;;;;;;5065116;28;20470;-76
2024/03/12 09:18:42;;;;;;;4.18;2.28;;;486.70;1792.00;;;;;;5068659;28;20037;-76
2024/03/12 09:21:09;;;;;;;5.40;2.10;;;486.70;1766.40;;;;;;5047558;28;20494;-77
2024/03/12 09:23:36;;;;;;;2.17;1.48;;;486.80;1740.80;;;;;;5066269;28;20493;-76
2024/03/12 09:26:06;;;;;;;3.03;2.13;;;486.90;1715.20;;;;;;5064889;28;20071;-76
2024/03/12 09:28:33;;;;;;;3.30;1.70;;;487.10;1740.80;;;;;;5047925;28;20056;-79
2024/03/12 09:30:59;;;;;;;3.85;1.92;;;487.00;1689.60;;;;;;5065560;28;20537;-77
2024/03/12 09:33:25;;;;;;;3.28;2.38;;;487.10;1664.00;;;;;;5066320;28;20095;-78
2024/03/12 09:35:53;;;;;;;3.45;1.77;;;487.00;1664.00;;;;;;5063442;28;20024;-76
2024/03/12 09:38:19;;;;;;;4.82;2.53;;;487.30;1664.00;;;;;;5044339;28;20047;-78
2024/03/12 09:40:47;;;;;;;5.53;2.10;;;512.10;1664.00;;;;;;5067979;28;20111;-75
2024/03/12 09:43:18;;;;;;;2.17;1.60;;;512.20;1638.40;;;;;;5063158;28;20029;-78
2024/03/12 09:45:45;;;;;;;3.28;1.90;;;512.40;1612.80;;;;;;5066012;28;20474;-79
2024/03/12 09:48:15;;;;;;;3.72;2.40;;;512.40;1587.20;;;;;;5034668;28;20032;-77
2024/03/12 09:50:44;;;;;;;6.93;2.70;;;512.50;1638.40;;;;;;5055178;28;20070;-76
2024/03/12 09:53:16;;;;;;;4.15;2.45;;;512.50;1664.00;;;;;;5031284;28;20025;-77
2024/03/12 09:55:42;;;;;;;3.53;2.35;;;512.50;1664.00;;;;;;5044687;28;20020;-78
2024/03/12 09:58:08;;;;;;;6.07;2.20;;;512.70;1638.40;;;;;;5044393;28;21219;-77
2024/03/12 10:00:36;;;;;;;6.18;2.45;;;512.80;1664.00;;;;;;5048205;28;20382;-81
2024/03/12 10:03:05;;;;;;;3.45;1.95;;;512.80;1638.40;;;;;;5051165;28;20488;-77
2024/03/12 10:05:34;;;;;;;8.00;3.65;;;512.90;1612.80;;;;;;5067532;28;20351;-78
2024/03/12 10:08:16;;;;;;;4.28;2.20;;;537.80;1612.80;;;;;;5065605;28;20053;-77
2024/03/12 10:10:46;;;;;;;3.08;2.03;;;537.90;1561.60;;;;;;5069508;28;20035;-73
2024/03/12 10:13:17;;;;;;;5.15;3.28;;;537.90;1561.60;;;;;;5062709;28;20071;-76
2024/03/12 10:15:52;;;;;;;3.67;2.22;;;538.00;1561.60;;;;;;5044991;28;20017;-78
2024/03/12 10:18:19;;;;;;;3.00;1.95;;;538.20;1561.60;;;;;;5069511;28;20039;-77
2024/03/12 10:20:51;;;;;;;4.65;2.63;;;538.10;1536.00;;;;;;5064836;28;20025;-77
2024/03/12 10:23:18;;;;;;;4.05;1.80;;;538.10;1561.60;;;;;;5050865;28;20028;-77
2024/03/12 10:25:44;;;;;;;3.42;1.77;;;538.20;1536.00;;;;;;5043969;28;20020;-77
2024/03/12 10:28:16;;;;;;;2.42;1.40;;;538.20;1561.60;;;;;;5069229;28;20029;-81
2024/03/12 10:30:43;;;;;;;3.00;1.40;;;538.20;1510.40;;;;;;5050206;28;20039;-77
2024/03/12 10:33:13;;;;;;;6.00;1.70;;;538.50;1484.80;;;;;;5070174;28;20025;-77
2024/03/12 10:35:44;;;;;;;6.10;2.40;;;538.20;1536.00;;;;;;5068529;28;20021;-76
2024/03/12 10:38:23;;;;;;;2.90;1.52;;;538.20;1536.00;;;;;;5040013;28;20086;-77
2024/03/12 10:40:49;;;;;;;3.00;1.98;;;538.50;1484.80;;;;;;5050038;28;20021;-77
2024/03/12 10:43:20;;;;;;;2.25;1.77;;;563.20;1510.40;;;;;;5050994;28;20039;-77
2024/03/12 10:45:49;;;;;;;4.70;2.17;;;563.30;1484.80;;;;;;5060870;28;20082;-77
2024/03/12 10:48:17;;;;;;;6.97;2.50;;;538.30;1510.40;;;;;;5062194;28;20040;-78
2024/03/12 10:50:44;;;;;;;5.00;2.80;;;563.20;1536.00;;;;;;5052486;28;20027;-79
2024/03/12 10:53:11;;;;;;;3.00;1.95;;;563.50;1510.40;;;;;;5044973;28;20037;-77
2024/03/12 10:55:38;;;;;;;3.22;1.95;;;563.70;1484.80;;;;;;5045951;28;20040;-80
2024/03/12 10:58:08;;;;;;;4.28;2.15;;;563.50;1510.40;;;;;;5048070;28;20048;-78
2024/03/12 11:00:39;;;;;;;3.92;2.17;;;563.70;1484.80;;;;;;5047972;28;20378;-79
2024/03/12 11:03:09;;;;;;;3.65;1.70;;;563.70;1459.20;;;;;;5046518;28;20035;-82
2024/03/12 11:05:35;;;;;;;5.07;1.92;;;563.50;1433.60;;;;;;5039401;28;20028;-78
2024/03/12 11:08:01;;;;;;;5.18;1.90;;;563.40;1459.20;;;;;;5048883;28;20068;-80
2024/03/12 11:10:32;;;;;;;5.00;2.20;;;563.70;1459.20;;;;;;5032867;28;20029;-78
2024/03/12 11:13:05;;;;;;;4.03;2.03;;;564.10;1433.60;;;;;;5061873;28;20502;-78
2024/03/12 11:15:32;;;;;;;4.63;2.50;;;588.90;1433.60;;;;;;5068682;28;20118;-78
2024/03/12 11:17:58;;;;;;;3.42;2.00;;;589.10;1433.60;;;;;;5044131;28;20128;-78
2024/03/12 11:20:25;;;;;;;4.70;2.28;;;563.80;1433.60;;;;;;5046260;28;20119;-78
2024/03/12 11:22:56;;;;;;;7.35;3.42;;;538.20;1459.20;;;;;;5053919;28;20036;-79
2024/03/12 11:25:38;;;;;;;3.45;2.28;;;563.40;1459.20;;;;;;5043743;28;20021;-79
2024/03/12 11:28:20;;;;;;;4.28;1.98;;;563.50;1459.20;;;;;;5070211;28;20104;-78
2024/03/12 11:31:04;;;;;;;4.68;2.13;;;563.50;1459.20;;;;;;5070543;28;20120;-81
2024/03/12 11:33:56;;;;;;;3.70;2.13;;;538.20;1484.80;;;;;;5047815;28;20037;-78
2024/03/12 11:36:29;;;;;;;6.68;2.40;;;563.50;1459.20;;;;;;5030006;28;20029;-79
2024/03/12 11:39:11;;;;;;;3.45;1.80;;;563.60;1459.20;;;;;;5048529;28;20067;-77
2024/03/12 11:42:10;;;;;;;17.13;2.00;;;563.50;1433.60;;;;;;5057478;28;20079;-79
2024/03/12 11:44:53;;;;;;;4.07;2.25;;;563.20;1459.20;;;;;;5042669;28;20079;-77
2024/03/12 11:47:40;;;;;;;5.20;2.15;;;512.00;1561.60;;;;;;5063617;28;20029;-78
2024/03/12 11:50:33;;;;;;;6.70;2.42;;;512.10;1587.20;;;;;;5042256;28;20478;-83
2024/03/12 11:53:30;;;;;;;3.25;1.80;;;512.60;1587.20;;;;;;5030804;28;20029;-78
2024/03/12 11:55:57;;;;;;;4.22;2.30;;;512.50;1561.60;;;;;;5073373;28;20027;-79
2024/03/12 11:58:31;;;;;;;3.28;1.88;;;512.10;1561.60;;;;;;5063393;28;20033;-78
2024/03/12 12:01:01;;;;;;;4.45;1.90;;;487.00;1587.20;;;;;;5049089;28;20466;-78
2024/03/12 12:03:27;;;;;;;3.50;1.80;;;487.10;1587.20;;;;;;5045586;28;20037;-78
2024/03/12 12:05:54;;;;;;;3.45;1.92;;;487.10;1612.80;;;;;;5046779;28;20115;-78
2024/03/12 12:08:21;;;;;;;2.53;1.50;;;486.80;1638.40;;;;;;5037709;28;20063;-81
2024/03/12 12:11:00;;;;;;;3.03;1.45;;;486.70;1664.00;;;;;;5046584;28;20056;-78
2024/03/12 12:13:26;;;;;;;2.90;1.60;;;486.60;1715.20;;;;;;5048750;28;20055;-78
2024/03/12 12:16:02;;;;;;;5.07;2.40;;;487.30;1664.00;;;;;;5048029;28;20025;-77
2024/03/12 12:18:33;;;;;;;3.33;1.80;;;512.60;1612.80;;;;;;5046957;28;20048;-79
2024/03/12 12:21:14;;;;;;;3.67;1.70;;;512.30;1587.20;;;;;;5050781;28;20033;-78
2024/03/12 12:23:45;;;;;;;6.97;3.65;;;512.50;1587.20;;;;;;5043582;28;20520;-78
2024/03/12 12:26:19;;;;;;;3.75;2.10;;;537.80;1587.20;;;;;;5049939;28;20048;-78
2024/03/12 12:28:52;;;;;;;3.35;1.70;;;538.00;1561.60;;;;;;5044873;28;20025;-78